sensor_id;sensor_type;location;lat;lon;timestamp;temperature;humidity
68276;DHT22;55106;51.438;-0.098;2023-01-01T00:00:09;11.68;93.40
68276;DHT22;55106;51.438;-0.098;2023-01-01T00:02:34;11.70;93.43
68276;DHT22;55106;51.438;-0.098;2023-01-01T00:05:00;11.74;93.33
68276;DHT22;55106;51.438;-0.098;2023-01-01T00:07:25;11.83;93.26
68276;DHT22;55106;51.438;-0.098;2023-01-01T00:09:50;11.82;93.72
68276;DHT22;55106;51.438;-0.098;2023-01-01T00:12:34;11.81;93.94
68276;DHT22;55106;51.438;-0.098;2023-01-01T00:14:59;11.91;93.39
68276;DHT22;55106;51.438;-0.098;2023-01-01T00:17:25;11.91;93.50
68276;DHT22;55106;51.438;-0.098;2023-01-01T00:19:51;11.88;95.75
68276;DHT22;55106;51.438;-0.098;2023-01-01T00:22:16;11.70;97.34
68276;DHT22;55106;51.438;-0.098;2023-01-01T00:24:42;11.52;98.08
68276;DHT22;55106;51.438;-0.098;2023-01-01T00:27:07;11.43;98.50
68276;DHT22;55106;51.438;-0.098;2023-01-01T00:29:32;11.33;99.03
68276;DHT22;55106;51.438;-0.098;2023-01-01T00:31:58;11.24;99.49
68276;DHT22;55106;51.438;-0.098;2023-01-01T00:34:23;11.23;99.22
68276;DHT22;55106;51.438;-0.098;2023-01-01T00:36:48;11.22;99.08
68276;DHT22;55106;51.438;-0.098;2023-01-01T00:39:14;11.17;99.17
68276;DHT22;55106;51.438;-0.098;2023-01-01T00:41:39;11.16;99.36
68276;DHT22;55106;51.438;-0.098;2023-01-01T00:44:05;11.14;98.98
68276;DHT22;55106;51.438;-0.098;2023-01-01T00:46:30;11.06;99.28
68276;DHT22;55106;51.438;-0.098;2023-01-01T00:48:55;11.03;99.07
68276;DHT22;55106;51.438;-0.098;2023-01-01T00:51:21;11.06;98.27
68276;DHT22;55106;51.438;-0.098;2023-01-01T00:53:46;11.10;97.45
68276;DHT22;55106;51.438;-0.098;2023-01-01T00:56:11;11.00;97.54
68276;DHT22;55106;51.438;-0.098;2023-01-01T00:58:37;10.99;96.31
68276;DHT22;55106;51.438;-0.098;2023-01-01T01:01:02;10.97;95.87
68276;DHT22;55106;51.438;-0.098;2023-01-01T01:03:28;10.92;95.98
68276;DHT22;55106;51.438;-0.098;2023-01-01T01:06:16;10.89;95.08
68276;DHT22;55106;51.438;-0.098;2023-01-01T01:08:43;10.85;94.50
68276;DHT22;55106;51.438;-0.098;2023-01-01T01:13:43;10.76;94.12
68276;DHT22;55106;51.438;-0.098;2023-01-01T01:16:15;10.83;93.22
68276;DHT22;55106;51.438;-0.098;2023-01-01T01:18:40;10.88;92.40
68276;DHT22;55106;51.438;-0.098;2023-01-01T01:21:06;10.77;92.58
68276;DHT22;55106;51.438;-0.098;2023-01-01T01:23:32;10.73;92.68
68276;DHT22;55106;51.438;-0.098;2023-01-01T01:26:09;10.64;93.69
68276;DHT22;55106;51.438;-0.098;2023-01-01T01:28:35;10.55;93.75
68276;DHT22;55106;51.438;-0.098;2023-01-01T01:31:00;10.52;94.22
68276;DHT22;55106;51.438;-0.098;2023-01-01T01:33:25;10.49;93.81
68276;DHT22;55106;51.438;-0.098;2023-01-01T01:35:51;10.55;93.29
68276;DHT22;55106;51.438;-0.098;2023-01-01T01:38:16;10.58;92.83
68276;DHT22;55106;51.438;-0.098;2023-01-01T01:40:42;10.52;93.15
68276;DHT22;55106;51.438;-0.098;2023-01-01T01:45:59;10.72;91.87
68276;DHT22;55106;51.438;-0.098;2023-01-01T01:48:26;10.65;91.93
68276;DHT22;55106;51.438;-0.098;2023-01-01T01:50:52;10.64;92.37
68276;DHT22;55106;51.438;-0.098;2023-01-01T01:53:25;10.55;92.46
68276;DHT22;55106;51.438;-0.098;2023-01-01T01:55:58;10.55;92.25
68276;DHT22;55106;51.438;-0.098;2023-01-01T01:58:25;10.55;92.03
68276;DHT22;55106;51.438;-0.098;2023-01-01T02:00:52;10.48;92.36
68276;DHT22;55106;51.438;-0.098;2023-01-01T02:03:43;10.58;91.66
68276;DHT22;55106;51.438;-0.098;2023-01-01T02:06:10;10.54;91.69
68276;DHT22;55106;51.438;-0.098;2023-01-01T02:08:36;10.47;91.59
68276;DHT22;55106;51.438;-0.098;2023-01-01T02:11:02;10.48;91.01
68276;DHT22;55106;51.438;-0.098;2023-01-01T02:13:27;10.51;90.74
68276;DHT22;55106;51.438;-0.098;2023-01-01T02:16:04;10.58;90.89
68276;DHT22;55106;51.438;-0.098;2023-01-01T02:21:29;10.44;91.06
68276;DHT22;55106;51.438;-0.098;2023-01-01T02:24:33;10.41;90.76
68276;DHT22;55106;51.438;-0.098;2023-01-01T02:32:09;10.34;90.80
68276;DHT22;55106;51.438;-0.098;2023-01-01T02:34:42;10.28;91.32
68276;DHT22;55106;51.438;-0.098;2023-01-01T02:37:11;10.25;91.26
68276;DHT22;55106;51.438;-0.098;2023-01-01T02:39:45;10.33;90.69
68276;DHT22;55106;51.438;-0.098;2023-01-01T02:42:11;10.40;89.79
68276;DHT22;55106;51.438;-0.098;2023-01-01T02:44:40;10.34;90.10
68276;DHT22;55106;51.438;-0.098;2023-01-01T02:47:11;10.31;90.25
68276;DHT22;55106;51.438;-0.098;2023-01-01T02:49:44;10.30;90.52
68276;DHT22;55106;51.438;-0.098;2023-01-01T02:52:23;10.22;90.24
68276;DHT22;55106;51.438;-0.098;2023-01-01T02:58:10;10.16;90.80
68276;DHT22;55106;51.438;-0.098;2023-01-01T03:01:10;10.13;90.56
68276;DHT22;55106;51.438;-0.098;2023-01-01T03:03:41;10.07;90.57
68276;DHT22;55106;51.438;-0.098;2023-01-01T03:06:28;10.16;89.77
68276;DHT22;55106;51.438;-0.098;2023-01-01T03:12:21;10.13;89.18
68276;DHT22;55106;51.438;-0.098;2023-01-01T03:14:54;10.00;90.48
68276;DHT22;55106;51.438;-0.098;2023-01-01T03:17:29;10.04;90.40
68276;DHT22;55106;51.438;-0.098;2023-01-01T03:19:59;9.97;90.42
68276;DHT22;55106;51.438;-0.098;2023-01-01T03:22:31;9.96;90.40
68276;DHT22;55106;51.438;-0.098;2023-01-01T03:25:03;9.91;90.64
68276;DHT22;55106;51.438;-0.098;2023-01-01T03:30:07;9.86;91.00
68276;DHT22;55106;51.438;-0.098;2023-01-01T03:32:38;9.86;91.03
68276;DHT22;55106;51.438;-0.098;2023-01-01T03:35:26;9.78;91.42
68276;DHT22;55106;51.438;-0.098;2023-01-01T03:37:54;9.79;90.86
68276;DHT22;55106;51.438;-0.098;2023-01-01T03:40:21;9.75;91.12
68276;DHT22;55106;51.438;-0.098;2023-01-01T03:42:54;9.72;91.70
68276;DHT22;55106;51.438;-0.098;2023-01-01T03:45:30;9.70;91.37
68276;DHT22;55106;51.438;-0.098;2023-01-01T03:47:58;9.66;91.61
68276;DHT22;55106;51.438;-0.098;2023-01-01T03:50:32;9.68;91.66
68276;DHT22;55106;51.438;-0.098;2023-01-01T03:53:07;9.59;91.84
68276;DHT22;55106;51.438;-0.098;2023-01-01T03:55:52;9.76;91.32
68276;DHT22;55106;51.438;-0.098;2023-01-01T03:58:40;9.79;91.25
68276;DHT22;55106;51.438;-0.098;2023-01-01T04:01:20;9.78;91.43
68276;DHT22;55106;51.438;-0.098;2023-01-01T04:03:48;9.82;91.21
68276;DHT22;55106;51.438;-0.098;2023-01-01T04:06:14;9.80;91.74
68276;DHT22;55106;51.438;-0.098;2023-01-01T04:08:39;9.82;91.36
68276;DHT22;55106;51.438;-0.098;2023-01-01T04:11:18;9.78;91.44
68276;DHT22;55106;51.438;-0.098;2023-01-01T04:14:03;9.76;91.46
68276;DHT22;55106;51.438;-0.098;2023-01-01T04:16:29;9.72;91.91
68276;DHT22;55106;51.438;-0.098;2023-01-01T04:18:54;9.63;91.91
68276;DHT22;55106;51.438;-0.098;2023-01-01T04:21:19;9.58;92.05
68276;DHT22;55106;51.438;-0.098;2023-01-01T04:23:45;9.59;92.29
68276;DHT22;55106;51.438;-0.098;2023-01-01T04:26:12;9.66;91.71
68276;DHT22;55106;51.438;-0.098;2023-01-01T04:28:38;9.72;91.58
68276;DHT22;55106;51.438;-0.098;2023-01-01T04:31:03;9.66;91.20
68276;DHT22;55106;51.438;-0.098;2023-01-01T04:33:29;9.73;91.17
68276;DHT22;55106;51.438;-0.098;2023-01-01T04:35:54;9.66;91.54
68276;DHT22;55106;51.438;-0.098;2023-01-01T04:38:19;9.70;91.20
68276;DHT22;55106;51.438;-0.098;2023-01-01T04:40:45;9.70;91.61
68276;DHT22;55106;51.438;-0.098;2023-01-01T04:43:11;9.69;91.52
68276;DHT22;55106;51.438;-0.098;2023-01-01T04:45:36;9.69;92.05
68276;DHT22;55106;51.438;-0.098;2023-01-01T04:48:03;9.73;92.11
68276;DHT22;55106;51.438;-0.098;2023-01-01T04:50:29;9.68;92.38
68276;DHT22;55106;51.438;-0.098;2023-01-01T04:52:54;9.63;92.79
68276;DHT22;55106;51.438;-0.098;2023-01-01T04:55:19;9.62;93.17
68276;DHT22;55106;51.438;-0.098;2023-01-01T04:57:45;9.56;93.25
68276;DHT22;55106;51.438;-0.098;2023-01-01T05:00:10;9.58;93.63
68276;DHT22;55106;51.438;-0.098;2023-01-01T05:02:37;9.59;93.49
68276;DHT22;55106;51.438;-0.098;2023-01-01T05:05:03;9.66;93.33
68276;DHT22;55106;51.438;-0.098;2023-01-01T05:07:28;9.56;93.60
68276;DHT22;55106;51.438;-0.098;2023-01-01T05:09:54;9.65;93.22
68276;DHT22;55106;51.438;-0.098;2023-01-01T05:12:19;9.68;93.48
68276;DHT22;55106;51.438;-0.098;2023-01-01T05:14:44;9.70;93.16
68276;DHT22;55106;51.438;-0.098;2023-01-01T05:17:10;9.68;92.97
68276;DHT22;55106;51.438;-0.098;2023-01-01T05:19:35;9.62;93.35
68276;DHT22;55106;51.438;-0.098;2023-01-01T05:22:00;9.65;92.97
68276;DHT22;55106;51.438;-0.098;2023-01-01T05:24:26;9.69;93.33
68276;DHT22;55106;51.438;-0.098;2023-01-01T05:26:51;9.72;93.23
68276;DHT22;55106;51.438;-0.098;2023-01-01T05:29:17;9.73;93.19
68276;DHT22;55106;51.438;-0.098;2023-01-01T05:31:44;9.85;93.01
68276;DHT22;55106;51.438;-0.098;2023-01-01T05:34:10;9.90;92.97
68276;DHT22;55106;51.438;-0.098;2023-01-01T05:36:36;9.89;93.46
68276;DHT22;55106;51.438;-0.098;2023-01-01T05:39:04;9.85;93.56
68276;DHT22;55106;51.438;-0.098;2023-01-01T05:41:30;9.90;93.21
68276;DHT22;55106;51.438;-0.098;2023-01-01T05:44:00;9.91;92.49
68276;DHT22;55106;51.438;-0.098;2023-01-01T05:46:26;9.94;92.74
68276;DHT22;55106;51.438;-0.098;2023-01-01T05:48:52;10.06;92.12
68276;DHT22;55106;51.438;-0.098;2023-01-01T05:51:23;10.13;91.71
68276;DHT22;55106;51.438;-0.098;2023-01-01T05:53:49;10.16;91.61
68276;DHT22;55106;51.438;-0.098;2023-01-01T05:56:16;10.11;91.52
68276;DHT22;55106;51.438;-0.098;2023-01-01T05:58:42;10.07;91.72
68276;DHT22;55106;51.438;-0.098;2023-01-01T06:03:32;10.07;91.30
68276;DHT22;55106;51.438;-0.098;2023-01-01T06:06:03;10.01;91.36
68276;DHT22;55106;51.438;-0.098;2023-01-01T06:08:28;10.14;90.47
68276;DHT22;55106;51.438;-0.098;2023-01-01T06:11:00;10.10;90.55
68276;DHT22;55106;51.438;-0.098;2023-01-01T06:13:26;10.00;90.78
68276;DHT22;55106;51.438;-0.098;2023-01-01T06:15:56;10.01;90.88
68276;DHT22;55106;51.438;-0.098;2023-01-01T06:18:23;9.97;91.36
68276;DHT22;55106;51.438;-0.098;2023-01-01T06:20:49;9.93;91.58
68276;DHT22;55106;51.438;-0.098;2023-01-01T06:23:14;9.83;92.05
68276;DHT22;55106;51.438;-0.098;2023-01-01T06:25:40;9.69;93.24
68276;DHT22;55106;51.438;-0.098;2023-01-01T06:28:05;9.60;92.75
68276;DHT22;55106;51.438;-0.098;2023-01-01T06:30:30;9.59;93.10
68276;DHT22;55106;51.438;-0.098;2023-01-01T06:33:01;9.66;92.85
68276;DHT22;55106;51.438;-0.098;2023-01-01T06:35:27;9.69;93.26
68276;DHT22;55106;51.438;-0.098;2023-01-01T06:37:52;9.60;94.04
68276;DHT22;55106;51.438;-0.098;2023-01-01T06:40:18;9.59;94.07
68276;DHT22;55106;51.438;-0.098;2023-01-01T06:42:43;9.55;94.09
68276;DHT22;55106;51.438;-0.098;2023-01-01T06:45:09;9.45;95.21
68276;DHT22;55106;51.438;-0.098;2023-01-01T06:47:35;9.62;94.61
68276;DHT22;55106;51.438;-0.098;2023-01-01T06:50:02;9.68;94.50
68276;DHT22;55106;51.438;-0.098;2023-01-01T06:52:28;9.66;94.71
68276;DHT22;55106;51.438;-0.098;2023-01-01T06:54:53;9.72;94.51
68276;DHT22;55106;51.438;-0.098;2023-01-01T06:57:19;9.63;94.87
68276;DHT22;55106;51.438;-0.098;2023-01-01T06:59:44;9.58;95.05
68276;DHT22;55106;51.438;-0.098;2023-01-01T07:02:10;9.55;95.45
68276;DHT22;55106;51.438;-0.098;2023-01-01T07:04:36;9.56;95.24
68276;DHT22;55106;51.438;-0.098;2023-01-01T07:07:01;9.79;94.41
68276;DHT22;55106;51.438;-0.098;2023-01-01T07:09:27;9.80;94.54
68276;DHT22;55106;51.438;-0.098;2023-01-01T07:11:52;9.89;93.29
68276;DHT22;55106;51.438;-0.098;2023-01-01T07:14:17;9.87;93.39
68276;DHT22;55106;51.438;-0.098;2023-01-01T07:16:43;9.93;93.08
68276;DHT22;55106;51.438;-0.098;2023-01-01T07:19:08;9.96;93.20
68276;DHT22;55106;51.438;-0.098;2023-01-01T07:21:53;9.89;93.48
68276;DHT22;55106;51.438;-0.098;2023-01-01T07:24:19;9.82;93.45
68276;DHT22;55106;51.438;-0.098;2023-01-01T07:26:45;9.97;93.28
68276;DHT22;55106;51.438;-0.098;2023-01-01T07:29:11;9.96;93.00
68276;DHT22;55106;51.438;-0.098;2023-01-01T07:31:41;9.94;92.88
68276;DHT22;55106;51.438;-0.098;2023-01-01T07:34:11;9.90;93.16
68276;DHT22;55106;51.438;-0.098;2023-01-01T07:36:37;9.87;93.37
68276;DHT22;55106;51.438;-0.098;2023-01-01T07:39:03;9.78;93.69
68276;DHT22;55106;51.438;-0.098;2023-01-01T07:41:28;9.72;94.37
68276;DHT22;55106;51.438;-0.098;2023-01-01T07:43:53;9.68;94.46
68276;DHT22;55106;51.438;-0.098;2023-01-01T07:46:19;9.62;94.53
68276;DHT22;55106;51.438;-0.098;2023-01-01T07:48:44;9.55;94.84
68276;DHT22;55106;51.438;-0.098;2023-01-01T07:51:10;9.51;94.91
68276;DHT22;55106;51.438;-0.098;2023-01-01T07:53:35;9.51;95.50
68276;DHT22;55106;51.438;-0.098;2023-01-01T07:56:01;9.53;95.15
68276;DHT22;55106;51.438;-0.098;2023-01-01T07:58:26;9.58;95.02
68276;DHT22;55106;51.438;-0.098;2023-01-01T08:00:52;9.59;94.69
68276;DHT22;55106;51.438;-0.098;2023-01-01T08:03:17;9.63;94.72
68276;DHT22;55106;51.438;-0.098;2023-01-01T08:05:43;9.58;95.19
68276;DHT22;55106;51.438;-0.098;2023-01-01T08:08:09;9.65;94.86
68276;DHT22;55106;51.438;-0.098;2023-01-01T08:10:35;9.52;95.27
68276;DHT22;55106;51.438;-0.098;2023-01-01T08:13:02;9.60;95.07
68276;DHT22;55106;51.438;-0.098;2023-01-01T08:15:28;9.59;95.19
68276;DHT22;55106;51.438;-0.098;2023-01-01T08:17:58;9.46;95.47
68276;DHT22;55106;51.438;-0.098;2023-01-01T08:20:25;9.42;95.68
68276;DHT22;55106;51.438;-0.098;2023-01-01T08:22:50;9.45;95.75
68276;DHT22;55106;51.438;-0.098;2023-01-01T08:25:16;9.42;95.37
68276;DHT22;55106;51.438;-0.098;2023-01-01T08:27:41;9.39;95.54
68276;DHT22;55106;51.438;-0.098;2023-01-01T08:30:07;9.42;95.69
68276;DHT22;55106;51.438;-0.098;2023-01-01T08:32:34;9.43;95.54
68276;DHT22;55106;51.438;-0.098;2023-01-01T08:34:59;9.42;95.54
68276;DHT22;55106;51.438;-0.098;2023-01-01T08:37:24;9.39;95.46
68276;DHT22;55106;51.438;-0.098;2023-01-01T08:39:50;9.32;95.74
68276;DHT22;55106;51.438;-0.098;2023-01-01T08:42:16;9.36;95.74
68276;DHT22;55106;51.438;-0.098;2023-01-01T08:44:42;9.43;95.43
68276;DHT22;55106;51.438;-0.098;2023-01-01T08:47:16;9.38;95.55
68276;DHT22;55106;51.438;-0.098;2023-01-01T08:49:42;9.32;95.84
68276;DHT22;55106;51.438;-0.098;2023-01-01T08:52:07;9.39;95.60
68276;DHT22;55106;51.438;-0.098;2023-01-01T08:54:33;9.32;95.54
68276;DHT22;55106;51.438;-0.098;2023-01-01T08:56:58;9.39;95.23
68276;DHT22;55106;51.438;-0.098;2023-01-01T08:59:23;9.48;94.85
68276;DHT22;55106;51.438;-0.098;2023-01-01T09:01:49;9.55;94.58
68276;DHT22;55106;51.438;-0.098;2023-01-01T09:04:14;9.60;94.36
68276;DHT22;55106;51.438;-0.098;2023-01-01T09:06:41;9.66;94.14
68276;DHT22;55106;51.438;-0.098;2023-01-01T09:09:07;9.73;93.93
68276;DHT22;55106;51.438;-0.098;2023-01-01T09:11:32;9.96;93.37
68276;DHT22;55106;51.438;-0.098;2023-01-01T09:13:57;10.34;92.23
68276;DHT22;55106;51.438;-0.098;2023-01-01T09:16:23;10.64;91.34
68276;DHT22;55106;51.438;-0.098;2023-01-01T09:18:48;10.73;90.74
68276;DHT22;55106;51.438;-0.098;2023-01-01T09:21:14;10.96;90.08
68276;DHT22;55106;51.438;-0.098;2023-01-01T09:23:39;11.24;89.09
68276;DHT22;55106;51.438;-0.098;2023-01-01T09:26:06;11.30;88.92
68276;DHT22;55106;51.438;-0.098;2023-01-01T09:28:33;11.22;88.85
68276;DHT22;55106;51.438;-0.098;2023-01-01T09:30:58;11.00;89.54
68276;DHT22;55106;51.438;-0.098;2023-01-01T09:33:25;10.92;90.13
68276;DHT22;55106;51.438;-0.098;2023-01-01T09:35:51;10.77;90.34
68276;DHT22;55106;51.438;-0.098;2023-01-01T09:38:16;10.75;90.44
68276;DHT22;55106;51.438;-0.098;2023-01-01T09:43:32;10.72;91.49
68276;DHT22;55106;51.438;-0.098;2023-01-01T09:46:07;10.71;90.96
68276;DHT22;55106;51.438;-0.098;2023-01-01T09:48:37;10.68;90.80
68276;DHT22;55106;51.438;-0.098;2023-01-01T09:51:08;10.73;90.41
68276;DHT22;55106;51.438;-0.098;2023-01-01T09:56:29;10.83;90.17
68276;DHT22;55106;51.438;-0.098;2023-01-01T09:58:56;10.88;90.22
68276;DHT22;55106;51.438;-0.098;2023-01-01T10:15:19;11.40;89.40
68276;DHT22;55106;51.438;-0.098;2023-01-01T10:17:51;11.44;89.14
68276;DHT22;55106;51.438;-0.098;2023-01-01T10:20:23;11.55;89.11
68276;DHT22;55106;51.438;-0.098;2023-01-01T10:22:54;11.64;89.11
68276;DHT22;55106;51.438;-0.098;2023-01-01T10:25:24;11.72;88.33
68276;DHT22;55106;51.438;-0.098;2023-01-01T10:27:55;11.72;88.30
68276;DHT22;55106;51.438;-0.098;2023-01-01T10:30:23;11.70;88.60
68276;DHT22;55106;51.438;-0.098;2023-01-01T10:32:52;11.65;88.62
68276;DHT22;55106;51.438;-0.098;2023-01-01T10:35:25;11.57;88.64
68276;DHT22;55106;51.438;-0.098;2023-01-01T10:37:57;11.52;88.87
68276;DHT22;55106;51.438;-0.098;2023-01-01T10:40:24;11.51;88.92
68276;DHT22;55106;51.438;-0.098;2023-01-01T10:42:59;11.55;88.59
68276;DHT22;55106;51.438;-0.098;2023-01-01T10:45:43;11.62;88.41
68276;DHT22;55106;51.438;-0.098;2023-01-01T10:50:51;11.68;88.25
68276;DHT22;55106;51.438;-0.098;2023-01-01T10:53:42;11.64;88.63
68276;DHT22;55106;51.438;-0.098;2023-01-01T10:56:22;11.62;87.65
68276;DHT22;55106;51.438;-0.098;2023-01-01T10:58:51;11.62;87.55
68276;DHT22;55106;51.438;-0.098;2023-01-01T11:01:28;11.61;87.84
68276;DHT22;55106;51.438;-0.098;2023-01-01T11:06:32;11.62;88.19
68276;DHT22;55106;51.438;-0.098;2023-01-01T11:08:59;11.60;88.26
68276;DHT22;55106;51.438;-0.098;2023-01-01T11:11:47;11.65;88.18
68276;DHT22;55106;51.438;-0.098;2023-01-01T11:14:29;11.70;87.90
68276;DHT22;55106;51.438;-0.098;2023-01-01T11:16:56;11.75;88.37
68276;DHT22;55106;51.438;-0.098;2023-01-01T11:21:54;11.77;87.80
68276;DHT22;55106;51.438;-0.098;2023-01-01T11:24:26;11.82;87.61
68276;DHT22;55106;51.438;-0.098;2023-01-01T11:27:17;11.85;87.09
68276;DHT22;55106;51.438;-0.098;2023-01-01T11:29:43;11.92;86.90
68276;DHT22;55106;51.438;-0.098;2023-01-01T11:32:15;11.95;87.25
68276;DHT22;55106;51.438;-0.098;2023-01-01T11:34:43;12.03;87.35
68276;DHT22;55106;51.438;-0.098;2023-01-01T11:37:28;12.02;87.35
68276;DHT22;55106;51.438;-0.098;2023-01-01T11:39:56;12.03;87.28
68276;DHT22;55106;51.438;-0.098;2023-01-01T11:42:24;12.03;87.38
68276;DHT22;55106;51.438;-0.098;2023-01-01T11:47:30;11.98;87.78
68276;DHT22;55106;51.438;-0.098;2023-01-01T11:50:05;11.91;87.95
68276;DHT22;55106;51.438;-0.098;2023-01-01T11:52:37;11.88;87.94
68276;DHT22;55106;51.438;-0.098;2023-01-01T11:55:12;11.88;87.73
68276;DHT22;55106;51.438;-0.098;2023-01-01T11:57:51;11.85;87.87
68276;DHT22;55106;51.438;-0.098;2023-01-01T12:00:21;11.83;88.10
68276;DHT22;55106;51.438;-0.098;2023-01-01T12:02:52;11.81;88.43
68276;DHT22;55106;51.438;-0.098;2023-01-01T12:05:23;11.83;88.64
68276;DHT22;55106;51.438;-0.098;2023-01-01T12:07:49;11.82;88.55
68276;DHT22;55106;51.438;-0.098;2023-01-01T12:10:26;11.82;87.93
68276;DHT22;55106;51.438;-0.098;2023-01-01T12:13:02;11.78;88.25
68276;DHT22;55106;51.438;-0.098;2023-01-01T12:15:40;11.81;88.64
68276;DHT22;55106;51.438;-0.098;2023-01-01T12:18:27;11.83;88.54
68276;DHT22;55106;51.438;-0.098;2023-01-01T12:21:06;11.77;88.65
68276;DHT22;55106;51.438;-0.098;2023-01-01T12:23:34;11.82;88.36
68276;DHT22;55106;51.438;-0.098;2023-01-01T12:26:12;11.83;89.01
68276;DHT22;55106;51.438;-0.098;2023-01-01T12:36:46;11.89;88.64
68276;DHT22;55106;51.438;-0.098;2023-01-01T12:39:43;11.89;88.88
68276;DHT22;55106;51.438;-0.098;2023-01-01T12:56:42;11.95;88.15
68276;DHT22;55106;51.438;-0.098;2023-01-01T12:59:14;11.91;88.77
68276;DHT22;55106;51.438;-0.098;2023-01-01T13:01:42;11.92;88.38
68276;DHT22;55106;51.438;-0.098;2023-01-01T13:04:16;11.91;88.01
68276;DHT22;55106;51.438;-0.098;2023-01-01T13:06:47;11.89;88.62
68276;DHT22;55106;51.438;-0.098;2023-01-01T13:09:24;11.91;88.93
68276;DHT22;55106;51.438;-0.098;2023-01-01T13:11:55;11.82;88.92
68276;DHT22;55106;51.438;-0.098;2023-01-01T13:14:20;11.83;88.82
68276;DHT22;55106;51.438;-0.098;2023-01-01T13:16:52;11.82;88.63
68276;DHT22;55106;51.438;-0.098;2023-01-01T13:19:44;11.85;89.24
68276;DHT22;55106;51.438;-0.098;2023-01-01T13:33:26;11.77;89.12
68276;DHT22;55106;51.438;-0.098;2023-01-01T13:43:50;11.78;89.28
68276;DHT22;55106;51.438;-0.098;2023-01-01T13:46:22;11.78;89.18
68276;DHT22;55106;51.438;-0.098;2023-01-01T13:48:57;11.79;89.51
68276;DHT22;55106;51.438;-0.098;2023-01-01T13:51:42;11.74;89.61
68276;DHT22;55106;51.438;-0.098;2023-01-01T13:54:34;11.72;89.49
68276;DHT22;55106;51.438;-0.098;2023-01-01T14:04:55;11.61;90.17
68276;DHT22;55106;51.438;-0.098;2023-01-01T14:07:41;11.64;89.51
68276;DHT22;55106;51.438;-0.098;2023-01-01T14:10:30;11.62;89.61
68276;DHT22;55106;51.438;-0.098;2023-01-01T14:13:13;11.60;90.24
68276;DHT22;55106;51.438;-0.098;2023-01-01T14:16:01;11.62;90.22
68276;DHT22;55106;51.438;-0.098;2023-01-01T14:18:41;11.55;90.61
68276;DHT22;55106;51.438;-0.098;2023-01-01T14:21:29;11.57;90.92
68276;DHT22;55106;51.438;-0.098;2023-01-01T14:24:06;11.52;91.11
68276;DHT22;55106;51.438;-0.098;2023-01-01T14:26:36;11.52;91.54
68276;DHT22;55106;51.438;-0.098;2023-01-01T14:29:08;11.54;90.97
68276;DHT22;55106;51.438;-0.098;2023-01-01T14:31:38;11.55;91.03
68276;DHT22;55106;51.438;-0.098;2023-01-01T14:34:25;11.52;91.40
68276;DHT22;55106;51.438;-0.098;2023-01-01T14:37:00;11.48;91.07
68276;DHT22;55106;51.438;-0.098;2023-01-01T14:39:28;11.45;91.20
68276;DHT22;55106;51.438;-0.098;2023-01-01T14:42:00;11.43;91.35
68276;DHT22;55106;51.438;-0.098;2023-01-01T14:44:35;11.38;91.85
68276;DHT22;55106;51.438;-0.098;2023-01-01T14:47:02;11.35;91.87
68276;DHT22;55106;51.438;-0.098;2023-01-01T14:49:32;11.37;91.67
68276;DHT22;55106;51.438;-0.098;2023-01-01T14:52:08;11.35;91.71
68276;DHT22;55106;51.438;-0.098;2023-01-01T14:54:41;11.33;91.85
68276;DHT22;55106;51.438;-0.098;2023-01-01T14:57:10;11.31;91.94
68276;DHT22;55106;51.438;-0.098;2023-01-01T14:59:45;11.31;92.67
68276;DHT22;55106;51.438;-0.098;2023-01-01T15:04:35;11.23;93.12
68276;DHT22;55106;51.438;-0.098;2023-01-01T15:07:01;11.22;92.62
68276;DHT22;55106;51.438;-0.098;2023-01-01T15:09:27;11.22;92.97
68276;DHT22;55106;51.438;-0.098;2023-01-01T15:11:55;11.22;92.80
68276;DHT22;55106;51.438;-0.098;2023-01-01T15:14:37;11.22;92.40
68276;DHT22;55106;51.438;-0.098;2023-01-01T15:17:08;11.20;92.31
68276;DHT22;55106;51.438;-0.098;2023-01-01T15:19:35;11.19;92.83
68276;DHT22;55106;51.438;-0.098;2023-01-01T15:22:08;11.16;92.56
68276;DHT22;55106;51.438;-0.098;2023-01-01T15:24:35;11.13;92.87
68276;DHT22;55106;51.438;-0.098;2023-01-01T15:27:06;11.07;93.18
68276;DHT22;55106;51.438;-0.098;2023-01-01T15:29:43;11.04;93.19
68276;DHT22;55106;51.438;-0.098;2023-01-01T15:32:12;11.00;93.37
68276;DHT22;55106;51.438;-0.098;2023-01-01T15:34:51;10.97;94.01
68276;DHT22;55106;51.438;-0.098;2023-01-01T15:40:03;10.88;94.15
68276;DHT22;55106;51.438;-0.098;2023-01-01T15:43:07;10.93;93.99
68276;DHT22;55106;51.438;-0.098;2023-01-01T15:45:37;10.92;94.37
68276;DHT22;55106;51.438;-0.098;2023-01-01T15:50:36;10.88;94.04
68276;DHT22;55106;51.438;-0.098;2023-01-01T15:55:43;10.89;94.13
68276;DHT22;55106;51.438;-0.098;2023-01-01T15:58:19;10.91;94.07
68276;DHT22;55106;51.438;-0.098;2023-01-01T16:00:57;10.91;93.98
68276;DHT22;55106;51.438;-0.098;2023-01-01T16:03:25;10.92;93.87
68276;DHT22;55106;51.438;-0.098;2023-01-01T16:05:52;10.88;94.33
68276;DHT22;55106;51.438;-0.098;2023-01-01T16:08:19;10.88;94.10
68276;DHT22;55106;51.438;-0.098;2023-01-01T16:10:46;10.85;94.25
68276;DHT22;55106;51.438;-0.098;2023-01-01T16:13:12;10.85;94.10
68276;DHT22;55106;51.438;-0.098;2023-01-01T16:15:50;10.91;91.39
68276;DHT22;55106;51.438;-0.098;2023-01-01T16:18:17;10.85;90.99
68276;DHT22;55106;51.438;-0.098;2023-01-01T16:20:43;10.79;88.75
68276;DHT22;55106;51.438;-0.098;2023-01-01T16:23:10;10.62;88.57
68276;DHT22;55106;51.438;-0.098;2023-01-01T16:25:36;10.38;90.38
68276;DHT22;55106;51.438;-0.098;2023-01-01T16:28:01;10.18;92.12
68276;DHT22;55106;51.438;-0.098;2023-01-01T16:30:28;9.99;93.14
68276;DHT22;55106;51.438;-0.098;2023-01-01T16:32:53;9.83;94.88
68276;DHT22;55106;51.438;-0.098;2023-01-01T16:35:19;9.65;96.51
68276;DHT22;55106;51.438;-0.098;2023-01-01T16:37:45;9.58;96.45
68276;DHT22;55106;51.438;-0.098;2023-01-01T16:40:11;9.51;96.06
68276;DHT22;55106;51.438;-0.098;2023-01-01T16:42:36;9.46;96.65
68276;DHT22;55106;51.438;-0.098;2023-01-01T16:45:02;9.38;97.40
68276;DHT22;55106;51.438;-0.098;2023-01-01T16:50:49;9.20;97.89
68276;DHT22;55106;51.438;-0.098;2023-01-01T16:53:15;9.20;99.11
68276;DHT22;55106;51.438;-0.098;2023-01-01T16:55:40;9.14;98.88
68276;DHT22;55106;51.438;-0.098;2023-01-01T16:58:06;9.08;98.63
68276;DHT22;55106;51.438;-0.098;2023-01-01T17:00:31;9.05;99.40
68276;DHT22;55106;51.438;-0.098;2023-01-01T17:02:57;9.03;99.06
68276;DHT22;55106;51.438;-0.098;2023-01-01T17:05:22;9.00;99.36
68276;DHT22;55106;51.438;-0.098;2023-01-01T17:07:47;8.97;99.68
68276;DHT22;55106;51.438;-0.098;2023-01-01T17:10:13;8.97;99.74
68276;DHT22;55106;51.438;-0.098;2023-01-01T17:12:38;8.97;99.74
68276;DHT22;55106;51.438;-0.098;2023-01-01T17:15:04;8.99;99.68
68276;DHT22;55106;51.438;-0.098;2023-01-01T17:17:30;9.00;99.96
68276;DHT22;55106;51.438;-0.098;2023-01-01T17:19:55;9.04;99.99
68276;DHT22;55106;51.438;-0.098;2023-01-01T17:22:20;9.11;99.99
68276;DHT22;55106;51.438;-0.098;2023-01-01T17:24:46;9.14;99.99
68276;DHT22;55106;51.438;-0.098;2023-01-01T17:27:11;9.11;99.99
68276;DHT22;55106;51.438;-0.098;2023-01-01T17:29:36;9.22;99.99
68276;DHT22;55106;51.438;-0.098;2023-01-01T17:32:02;9.25;99.99
68276;DHT22;55106;51.438;-0.098;2023-01-01T17:34:27;9.28;99.99